createdAt,value
2018-11-12T00:00:41.693Z,12.65
2018-11-12T00:01:41.719Z,12.73
2018-11-12T00:02:41.745Z,12.70
2018-11-12T00:03:41.772Z,12.74
2018-11-12T00:04:41.798Z,12.66
2018-11-12T00:05:41.824Z,12.70
2018-11-12T00:06:41.850Z,12.63
2018-11-12T00:07:41.876Z,12.77
2018-11-12T00:08:41.903Z,12.65
2018-11-12T00:09:41.928Z,12.71
2018-11-12T00:10:41.954Z,12.62
2018-11-12T00:11:41.984Z,12.66
2018-11-12T00:12:42.053Z,12.61
2018-11-12T00:13:42.035Z,12.59
2018-11-12T00:14:42.059Z,12.61
2018-11-12T00:15:42.085Z,12.65
2018-11-12T00:16:42.113Z,12.58
2018-11-12T00:17:42.137Z,12.59
2018-11-12T00:18:42.163Z,12.58
2018-11-12T00:19:42.191Z,12.61
2018-11-12T00:20:42.219Z,12.62
2018-11-12T00:21:42.291Z,12.61
2018-11-12T00:22:42.270Z,12.59
2018-11-12T00:23:42.294Z,12.63
2018-11-12T00:24:42.321Z,12.61
2018-11-12T00:25:42.351Z,12.58
2018-11-12T00:26:42.372Z,12.59
2018-11-12T00:27:42.405Z,12.62
2018-11-12T00:28:42.425Z,12.59
2018-11-12T00:29:42.450Z,12.58
2018-11-12T00:30:42.478Z,12.59
2018-11-12T00:31:42.503Z,12.61
2018-11-12T00:32:42.530Z,12.56
2018-11-12T00:33:42.555Z,12.56
2018-11-12T00:34:42.581Z,12.58
2018-11-12T00:35:42.609Z,12.59
2018-11-12T00:36:42.634Z,12.55
2018-11-12T00:37:42.660Z,12.51
2018-11-12T00:38:42.686Z,12.47
2018-11-12T00:39:42.715Z,12.43
2018-11-12T00:40:42.739Z,12.41
2018-11-12T00:41:42.764Z,12.51
2018-11-12T00:42:42.793Z,12.47
2018-11-12T00:43:42.817Z,12.44
2018-11-12T00:44:42.843Z,12.47
2018-11-12T00:45:42.868Z,12.44
2018-11-12T00:46:42.900Z,12.44
2018-11-12T00:47:42.923Z,12.48
2018-11-12T00:48:42.948Z,12.56
2018-11-12T00:49:42.972Z,12.45
2018-11-12T00:50:42.999Z,12.44
2018-11-12T00:51:43.026Z,12.45
2018-11-12T00:52:43.052Z,12.43
2018-11-12T00:53:43.077Z,12.40
2018-11-12T00:54:43.104Z,12.41
2018-11-12T00:55:43.131Z,12.44
2018-11-12T00:56:43.157Z,12.41
2018-11-12T00:57:43.182Z,12.43
2018-11-12T00:58:43.212Z,12.47
2018-11-12T00:59:43.235Z,12.47
2018-11-12T01:00:43.262Z,12.52
2018-11-12T01:01:43.287Z,12.44
2018-11-12T01:02:43.813Z,12.45
2018-11-12T01:03:43.340Z,12.45
2018-11-12T01:04:43.367Z,12.55
2018-11-12T01:05:43.391Z,12.55
2018-11-12T01:06:43.418Z,12.48
2018-11-12T01:07:43.447Z,12.47
2018-11-12T01:08:43.471Z,12.59
2018-11-12T01:09:43.496Z,12.61
2018-11-12T01:10:43.523Z,12.51
2018-11-12T01:11:43.549Z,12.47
2018-11-12T01:12:43.575Z,12.52
2018-11-12T01:13:43.601Z,12.43
2018-11-12T01:14:43.627Z,12.61
2018-11-12T01:15:43.654Z,12.65
2018-11-12T01:16:43.681Z,12.45
2018-11-12T01:17:43.708Z,12.53
2018-11-12T01:18:43.732Z,12.51
2018-11-12T01:19:43.759Z,12.56
2018-11-12T01:20:43.787Z,12.55
2018-11-12T01:21:43.811Z,12.45
2018-11-12T01:22:43.838Z,12.56
2018-11-12T01:23:43.863Z,12.47
2018-11-12T01:24:43.893Z,12.47
2018-11-12T01:25:43.916Z,12.41
2018-11-12T01:26:43.942Z,12.41
2018-11-12T01:27:43.971Z,12.52
2018-11-12T01:28:43.999Z,12.43
2018-11-12T01:29:44.021Z,12.38
2018-11-12T01:30:44.047Z,12.48
2018-11-12T01:31:44.075Z,12.52
2018-11-12T01:32:44.106Z,12.33
2018-11-12T01:33:44.127Z,12.40
2018-11-12T01:34:44.157Z,12.45
2018-11-12T01:35:44.179Z,12.44
2018-11-12T01:36:44.205Z,12.43
2018-11-12T01:37:44.231Z,12.48
2018-11-12T01:38:44.258Z,12.43
2018-11-12T01:39:44.284Z,12.43
2018-11-12T01:40:44.310Z,12.34
2018-11-12T01:41:44.336Z,12.41
2018-11-12T01:42:44.363Z,12.40
2018-11-12T01:43:44.389Z,12.33
2018-11-12T01:44:44.416Z,12.36
2018-11-12T01:45:44.443Z,12.45
2018-11-12T01:46:44.467Z,12.41
2018-11-12T01:47:44.494Z,12.31
2018-11-12T01:48:44.522Z,12.37
2018-11-12T01:49:44.546Z,12.40
2018-11-12T01:50:44.572Z,12.33
2018-11-12T01:51:44.604Z,12.41
2018-11-12T01:52:44.625Z,12.36
2018-11-12T01:53:44.650Z,12.44
2018-11-12T01:54:44.679Z,12.43
2018-11-12T01:55:44.703Z,12.41
2018-11-12T01:56:44.732Z,12.34
2018-11-12T01:57:44.756Z,12.40
2018-11-12T01:58:44.783Z,12.41
2018-11-12T01:59:44.810Z,12.34
2018-11-12T02:00:44.834Z,12.45
2018-11-12T02:01:44.864Z,12.43
2018-11-12T02:02:44.887Z,12.45
2018-11-12T02:03:44.914Z,12.29
2018-11-12T02:04:45.027Z,12.34
2018-11-12T02:05:44.965Z,12.38
2018-11-12T02:06:44.993Z,12.36
2018-11-12T02:07:45.019Z,12.41
2018-11-12T02:08:45.171Z,12.29
2018-11-12T02:09:45.071Z,12.40
2018-11-12T02:10:45.097Z,12.31
2018-11-12T02:11:45.123Z,12.26
2018-11-12T02:12:45.152Z,12.33
2018-11-12T02:13:45.175Z,12.36
2018-11-12T02:14:45.304Z,12.31
2018-11-12T02:15:45.231Z,12.31
2018-11-12T02:16:45.255Z,12.25
2018-11-12T02:17:45.280Z,12.29
2018-11-12T02:18:45.307Z,12.31
2018-11-12T02:19:45.333Z,12.37
2018-11-12T02:20:45.361Z,12.25
2018-11-12T02:21:45.385Z,12.29
2018-11-12T02:22:45.412Z,12.38
2018-11-12T02:23:45.440Z,12.25
2018-11-12T02:24:45.465Z,12.26
2018-11-12T02:25:45.492Z,12.29
2018-11-12T02:26:45.522Z,12.38
2018-11-12T02:27:45.542Z,12.36
2018-11-12T02:28:45.569Z,12.33
2018-11-12T02:29:45.595Z,12.36
2018-11-12T02:30:45.621Z,12.29
2018-11-12T02:31:45.647Z,12.31
2018-11-12T02:32:45.675Z,12.29
2018-11-12T02:33:45.704Z,12.34
2018-11-12T02:34:45.730Z,12.36
2018-11-12T02:35:45.751Z,12.33
2018-11-12T02:36:45.780Z,12.34
2018-11-12T02:37:45.842Z,12.31
2018-11-12T02:38:45.830Z,12.34
2018-11-12T02:39:45.861Z,12.34
2018-11-12T02:40:45.892Z,12.41
2018-11-12T02:41:45.908Z,12.33
2018-11-12T02:42:45.935Z,12.29
2018-11-12T02:43:45.960Z,12.34
2018-11-12T02:44:45.987Z,12.29
2018-11-12T02:45:46.014Z,12.38
2018-11-12T02:46:46.039Z,12.41
2018-11-12T02:47:46.064Z,12.31
2018-11-12T02:48:46.090Z,12.38
2018-11-12T02:49:46.116Z,12.37
2018-11-12T02:50:46.142Z,12.38
2018-11-12T02:51:46.168Z,12.44
2018-11-12T02:52:46.196Z,12.34
2018-11-12T02:53:46.220Z,12.45
2018-11-12T02:54:46.246Z,12.41
2018-11-12T02:55:46.273Z,12.48
2018-11-12T02:56:46.300Z,12.37
2018-11-12T02:57:46.380Z,12.38
2018-11-12T02:58:46.350Z,12.40
2018-11-12T02:59:46.377Z,12.41
2018-11-12T03:00:46.403Z,12.44
2018-11-12T03:01:46.477Z,12.43
2018-11-12T03:02:46.461Z,12.47
2018-11-12T03:03:46.482Z,12.41
2018-11-12T03:04:46.520Z,12.40
2018-11-12T03:05:46.533Z,12.45
2018-11-12T03:06:46.560Z,12.38
2018-11-12T03:07:46.586Z,12.43
2018-11-12T03:08:46.614Z,12.41
2018-11-12T03:09:46.639Z,12.47
2018-11-12T03:10:46.665Z,12.40
2018-11-12T03:11:46.692Z,12.40
2018-11-12T03:12:46.718Z,12.44
2018-11-12T03:13:46.747Z,12.48
2018-11-12T03:14:46.824Z,12.43
2018-11-12T03:15:46.797Z,12.43
2018-11-12T03:16:46.824Z,12.43
2018-11-12T03:17:46.849Z,12.41
2018-11-12T03:18:46.877Z,12.41
2018-11-12T03:19:46.907Z,12.38
2018-11-12T03:20:46.930Z,12.45
2018-11-12T03:21:46.954Z,12.37
2018-11-12T03:22:46.981Z,12.45
2018-11-12T03:23:47.008Z,12.40
2018-11-12T03:24:47.035Z,12.45
2018-11-12T03:25:47.058Z,12.37
2018-11-12T03:26:47.086Z,12.34
2018-11-12T03:27:47.175Z,12.47
2018-11-12T03:28:47.138Z,12.36
2018-11-12T03:29:47.164Z,12.31
2018-11-12T03:30:47.191Z,12.38
2018-11-12T03:31:47.217Z,12.45
2018-11-12T03:32:47.250Z,12.40
2018-11-12T03:33:47.269Z,12.38
2018-11-12T03:34:47.296Z,12.44
2018-11-12T03:35:47.322Z,12.45
2018-11-12T03:36:47.357Z,12.44
2018-11-12T03:37:47.374Z,12.44
2018-11-12T03:38:47.403Z,12.34
2018-11-12T03:39:47.456Z,12.40
2018-11-12T03:40:47.456Z,12.38
2018-11-12T03:41:47.479Z,12.43
2018-11-12T03:42:47.505Z,12.44
2018-11-12T03:43:47.533Z,12.37
2018-11-12T03:44:47.559Z,12.40
2018-11-12T03:45:47.584Z,12.43
2018-11-12T03:46:47.611Z,12.45
2018-11-12T03:47:47.636Z,12.40
2018-11-12T03:48:47.665Z,12.36
2018-11-12T03:49:47.689Z,12.41
2018-11-12T03:50:47.715Z,12.40
2018-11-12T03:51:47.745Z,12.41
2018-11-12T03:52:47.767Z,12.37
2018-11-12T03:53:47.793Z,12.34
2018-11-12T03:54:47.819Z,12.47
2018-11-12T03:55:47.846Z,12.41
2018-11-12T03:56:47.876Z,12.40
2018-11-12T03:57:47.897Z,12.40
2018-11-12T03:58:47.924Z,12.36
2018-11-12T03:59:47.951Z,12.31
2018-11-12T04:00:47.977Z,12.38
2018-11-12T04:01:48.003Z,12.41
2018-11-12T04:02:48.030Z,12.33
2018-11-12T04:03:48.056Z,12.40
2018-11-12T04:04:48.083Z,12.38
2018-11-12T04:05:48.107Z,12.33
2018-11-12T04:06:48.133Z,12.36
2018-11-12T04:07:48.162Z,12.34
2018-11-12T04:08:48.188Z,12.44
2018-11-12T04:09:48.214Z,12.34
2018-11-12T04:10:48.239Z,12.40
2018-11-12T04:11:48.266Z,12.38
2018-11-12T04:12:48.294Z,12.47
2018-11-12T04:13:48.318Z,12.41
2018-11-12T04:14:48.344Z,12.33
2018-11-12T04:15:48.370Z,12.44
2018-11-12T04:16:48.397Z,12.36
2018-11-12T04:17:48.426Z,12.41
2018-11-12T04:18:48.449Z,12.47
2018-11-12T04:19:48.476Z,12.38
2018-11-12T04:20:48.502Z,12.43
2018-11-12T04:21:48.527Z,12.43
2018-11-12T04:22:48.555Z,12.51
2018-11-12T04:23:48.585Z,12.41
2018-11-12T04:24:48.607Z,12.40
2018-11-12T04:25:48.632Z,12.48
2018-11-12T04:26:48.661Z,12.51
2018-11-12T04:27:48.686Z,12.52
2018-11-12T04:28:48.713Z,12.56
2018-11-12T04:29:48.738Z,12.55
2018-11-12T04:30:48.764Z,12.52
2018-11-12T04:31:48.792Z,12.52
2018-11-12T04:32:48.819Z,12.55
2018-11-12T04:33:48.844Z,12.59
2018-11-12T04:34:48.872Z,12.59
2018-11-12T04:35:48.898Z,12.61
2018-11-12T04:36:48.924Z,12.61
2018-11-12T04:37:48.949Z,12.55
2018-11-12T04:38:48.976Z,12.48
2018-11-12T04:39:49.003Z,12.58
2018-11-12T04:40:49.029Z,12.52
2018-11-12T04:41:49.060Z,12.55
2018-11-12T04:42:49.091Z,12.58
2018-11-12T04:43:49.110Z,12.59
2018-11-12T04:44:49.136Z,12.56
2018-11-12T04:45:49.162Z,12.55
2018-11-12T04:46:49.188Z,12.58
2018-11-12T04:47:49.215Z,12.61
2018-11-12T04:48:49.241Z,12.51
2018-11-12T04:49:49.268Z,12.59
2018-11-12T04:50:49.298Z,12.53
2018-11-12T04:51:49.320Z,12.56
2018-11-12T04:52:49.347Z,12.58
2018-11-12T04:53:49.495Z,12.55
2018-11-12T04:54:49.401Z,12.51
2018-11-12T04:55:49.426Z,12.55
2018-11-12T04:56:49.453Z,12.48
2018-11-12T04:57:49.480Z,12.47
2018-11-12T04:58:49.508Z,12.47
2018-11-12T04:59:49.533Z,12.45
2018-11-12T05:00:49.560Z,12.44
2018-11-12T05:01:49.617Z,12.51
2018-11-12T05:02:49.612Z,12.56
2018-11-12T05:03:49.638Z,12.56
2018-11-12T05:04:49.665Z,12.58
2018-11-12T05:05:49.691Z,12.52
2018-11-12T05:06:49.718Z,12.44
2018-11-12T05:07:49.744Z,12.47
2018-11-12T05:08:49.771Z,12.47
2018-11-12T05:09:49.797Z,12.43
2018-11-12T05:10:49.824Z,12.37
2018-11-12T05:11:49.849Z,12.41
2018-11-12T05:12:49.877Z,12.38
2018-11-12T05:13:49.903Z,12.41
2018-11-12T05:14:49.929Z,12.44
2018-11-12T05:15:49.956Z,12.38
2018-11-12T05:16:50.131Z,12.33
2018-11-12T05:17:50.009Z,12.26
2018-11-12T05:18:50.034Z,12.23
2018-11-12T05:19:50.061Z,12.36
2018-11-12T05:20:50.090Z,12.25
2018-11-12T05:21:50.113Z,12.36
2018-11-12T05:22:50.140Z,12.33
2018-11-12T05:23:50.166Z,12.31
2018-11-12T05:24:50.192Z,12.25
2018-11-12T05:25:50.218Z,12.23
2018-11-12T05:26:50.245Z,12.23
2018-11-12T05:27:50.274Z,12.23
2018-11-12T05:28:50.300Z,12.19
2018-11-12T05:29:50.323Z,12.26
2018-11-12T05:30:50.349Z,12.22
2018-11-12T05:31:50.376Z,12.28
2018-11-12T05:32:50.403Z,12.22
2018-11-12T05:33:50.430Z,12.25
2018-11-12T05:34:50.454Z,12.29
2018-11-12T05:35:50.481Z,12.22
2018-11-12T05:36:50.508Z,12.20
2018-11-12T05:37:50.682Z,12.18
2018-11-12T05:38:50.562Z,12.15
2018-11-12T05:39:50.585Z,12.07
2018-11-12T05:40:50.613Z,12.13
2018-11-12T05:41:50.638Z,12.15
2018-11-12T05:42:50.664Z,12.10
2018-11-12T05:43:50.691Z,12.15
2018-11-12T05:44:50.780Z,12.07
2018-11-12T05:45:50.743Z,12.10
2018-11-12T05:46:50.772Z,12.11
2018-11-12T05:47:50.797Z,12.11
2018-11-12T05:48:50.822Z,12.11
2018-11-12T05:49:50.848Z,12.00
2018-11-12T05:50:50.874Z,12.00
2018-11-12T05:51:50.901Z,12.08
2018-11-12T05:52:50.927Z,12.05
2018-11-12T05:53:50.954Z,12.03
2018-11-12T05:54:50.980Z,11.97
2018-11-12T05:55:51.006Z,12.03
2018-11-12T05:56:51.032Z,12.03
2018-11-12T05:57:51.060Z,12.05
2018-11-12T05:58:51.095Z,12.05
2018-11-12T05:59:51.113Z,12.08
2018-11-12T06:00:51.137Z,12.08
2018-11-12T06:01:51.162Z,12.05
2018-11-12T06:02:51.189Z,11.98
2018-11-12T06:03:51.215Z,11.91
2018-11-12T06:04:51.307Z,12.01
2018-11-12T06:05:51.268Z,12.00
2018-11-12T06:06:51.294Z,12.00
2018-11-12T06:07:51.321Z,11.98
2018-11-12T06:08:51.347Z,11.85
2018-11-12T06:09:51.372Z,11.88
2018-11-12T06:10:51.398Z,11.95
2018-11-12T06:11:51.435Z,11.95
2018-11-12T06:12:51.452Z,11.88
2018-11-12T06:13:51.476Z,11.89
2018-11-12T06:14:51.505Z,11.85
2018-11-12T06:15:51.529Z,11.95
2018-11-12T06:16:51.555Z,11.97
2018-11-12T06:17:51.580Z,11.81
2018-11-12T06:18:51.607Z,11.94
2018-11-12T06:19:51.634Z,11.88
2018-11-12T06:20:51.659Z,12.00
2018-11-12T06:21:51.695Z,11.88
2018-11-12T06:22:51.866Z,11.95
2018-11-12T06:23:51.740Z,12.00
2018-11-12T06:24:51.764Z,11.94
2018-11-12T06:25:51.789Z,11.94
2018-11-12T06:26:51.822Z,11.97
2018-11-12T06:27:51.841Z,12.00
2018-11-12T06:28:51.867Z,12.00
2018-11-12T06:29:51.893Z,11.94
2018-11-12T06:30:51.921Z,11.97
2018-11-12T06:31:51.948Z,11.91
2018-11-12T06:32:51.972Z,11.95
2018-11-12T06:33:51.997Z,11.97
2018-11-12T06:34:52.023Z,11.95
2018-11-12T06:35:52.049Z,12.01
2018-11-12T06:36:52.175Z,12.04
2018-11-12T06:37:52.101Z,11.95
2018-11-12T06:38:52.127Z,11.94
2018-11-12T06:39:52.153Z,11.94
2018-11-12T06:40:52.181Z,11.85
2018-11-12T06:41:52.206Z,11.94
2018-11-12T06:42:52.440Z,11.86
2018-11-12T06:43:52.257Z,11.89
2018-11-12T06:44:52.283Z,11.98
2018-11-12T06:45:52.310Z,11.94
2018-11-12T06:46:52.336Z,11.91
2018-11-12T06:47:52.364Z,11.94
2018-11-12T06:48:52.390Z,11.95
2018-11-12T06:49:52.414Z,12.00
2018-11-12T06:50:52.439Z,11.94
2018-11-12T06:51:52.466Z,11.97
2018-11-12T06:52:52.576Z,11.89
2018-11-12T06:53:52.524Z,12.05
2018-11-12T06:54:52.544Z,12.08
2018-11-12T06:55:52.569Z,11.89
2018-11-12T06:56:52.595Z,11.91
2018-11-12T06:57:52.620Z,12.07
2018-11-12T06:58:52.647Z,12.05
2018-11-12T06:59:52.674Z,12.01
2018-11-12T07:00:52.723Z,11.98
2018-11-12T07:01:52.725Z,12.00
2018-11-12T07:02:52.751Z,11.97
2018-11-12T07:03:52.779Z,11.88
2018-11-12T07:04:52.804Z,11.98
2018-11-12T07:05:52.830Z,12.03
2018-11-12T07:06:52.919Z,12.00
2018-11-12T07:07:52.881Z,11.97
2018-11-12T07:08:52.908Z,11.97
2018-11-12T07:09:52.933Z,12.04
2018-11-12T07:10:52.960Z,12.03
2018-11-12T07:11:52.986Z,12.07
2018-11-12T07:12:53.012Z,11.97
2018-11-12T07:13:53.039Z,12.04
2018-11-12T07:14:53.067Z,12.03
2018-11-12T07:15:53.090Z,12.08
2018-11-12T07:16:53.116Z,12.08
2018-11-12T07:17:53.142Z,12.05
2018-11-12T07:18:53.231Z,12.04
2018-11-12T07:19:53.195Z,12.08
2018-11-12T07:20:53.222Z,12.07
2018-11-12T07:21:53.246Z,12.04
2018-11-12T07:22:53.274Z,12.07
2018-11-12T07:23:53.305Z,12.05
2018-11-12T07:24:53.326Z,12.11
2018-11-12T07:25:53.352Z,12.07
2018-11-12T07:26:53.378Z,12.10
2018-11-12T07:27:53.403Z,12.10
2018-11-12T07:28:53.430Z,12.04
2018-11-12T07:29:53.455Z,12.05
2018-11-12T07:30:53.621Z,12.11
2018-11-12T07:31:53.508Z,12.11
2018-11-12T07:32:53.535Z,12.08
2018-11-12T07:33:53.559Z,12.04
2018-11-12T07:34:53.588Z,12.03
2018-11-12T07:35:53.612Z,12.04
2018-11-12T07:36:53.638Z,12.15
2018-11-12T07:37:53.666Z,12.08
2018-11-12T07:38:53.691Z,12.05
2018-11-12T07:39:53.717Z,12.05
2018-11-12T07:40:53.743Z,12.01
2018-11-12T07:41:53.840Z,12.19
2018-11-12T07:42:53.807Z,12.20
2018-11-12T07:43:53.821Z,12.23
2018-11-12T07:44:53.852Z,12.23
2018-11-12T07:45:53.876Z,12.20
2018-11-12T07:46:53.900Z,12.26
2018-11-12T07:47:53.928Z,12.26
2018-11-12T07:48:54.051Z,12.23
2018-11-12T07:49:53.981Z,12.22
2018-11-12T07:50:54.005Z,12.28
2018-11-12T07:51:54.032Z,12.28
2018-11-12T07:52:54.059Z,12.25
2018-11-12T07:53:54.083Z,12.26
2018-11-12T07:54:54.110Z,12.22
2018-11-12T07:55:54.136Z,12.33
2018-11-12T07:56:54.164Z,12.20
2018-11-12T07:57:54.189Z,12.25
2018-11-12T07:58:54.215Z,12.31
2018-11-12T07:59:54.244Z,12.20
2018-11-12T08:00:54.268Z,12.25
2018-11-12T08:01:54.294Z,12.33
2018-11-12T08:02:54.325Z,12.31
2018-11-12T08:03:54.349Z,12.29
2018-11-12T08:04:54.373Z,12.26
2018-11-12T08:05:54.400Z,12.36
2018-11-12T08:06:54.426Z,12.25
2018-11-12T08:07:54.552Z,12.36
2018-11-12T08:08:54.499Z,12.40
2018-11-12T08:09:54.507Z,12.29
2018-11-12T08:10:54.531Z,12.33
2018-11-12T08:11:54.580Z,12.40
2018-11-12T08:12:54.584Z,12.33
2018-11-12T08:13:54.613Z,12.31
2018-11-12T08:14:54.687Z,12.33
2018-11-12T08:15:54.662Z,12.41
2018-11-12T08:16:54.689Z,12.37
2018-11-12T08:17:54.716Z,12.38
2018-11-12T08:18:54.741Z,12.51
2018-11-12T08:19:54.769Z,12.47
2018-11-12T08:20:54.795Z,12.44
2018-11-12T08:21:54.929Z,12.52
2018-11-12T08:22:54.846Z,12.45
2018-11-12T08:23:54.878Z,12.53
2018-11-12T08:24:54.900Z,12.52
2018-11-12T08:25:54.926Z,12.48
2018-11-12T08:26:54.953Z,12.48
2018-11-12T08:27:54.980Z,12.47
2018-11-12T08:28:55.009Z,12.56
2018-11-12T08:29:55.172Z,12.59
2018-11-12T08:30:55.058Z,12.55
2018-11-12T08:31:55.085Z,12.58
2018-11-12T08:32:55.190Z,12.65
2018-11-12T08:33:55.137Z,12.61
2018-11-12T08:34:55.166Z,12.58
2018-11-12T08:35:55.191Z,12.52
2018-11-12T08:36:55.218Z,12.58
2018-11-12T08:37:55.244Z,12.73
2018-11-12T08:38:55.269Z,12.63
2018-11-12T08:39:55.371Z,12.61
2018-11-12T08:40:55.428Z,12.65
2018-11-12T08:41:55.348Z,12.63
2018-11-12T08:42:55.373Z,12.69
2018-11-12T08:43:55.402Z,12.74
2018-11-12T08:44:55.427Z,12.73
2018-11-12T08:45:55.496Z,12.71
2018-11-12T08:46:55.534Z,12.71
2018-11-12T08:47:55.506Z,12.74
2018-11-12T08:48:55.563Z,12.70
2018-11-12T08:49:55.603Z,12.95
2018-11-12T08:50:55.585Z,13.06
2018-11-12T08:51:55.612Z,13.06
2018-11-12T08:52:55.642Z,12.96
2018-11-12T08:53:55.663Z,12.96
2018-11-12T08:54:55.776Z,12.83
2018-11-12T08:55:55.718Z,12.86
2018-11-12T08:56:55.746Z,12.73
2018-11-12T08:57:55.806Z,12.78
2018-11-12T08:58:55.827Z,12.73
2018-11-12T08:59:55.823Z,12.77
2018-11-12T09:00:55.938Z,12.78
2018-11-12T09:01:55.876Z,12.77
2018-11-12T09:02:55.903Z,12.77
2018-11-12T09:03:55.991Z,12.81
2018-11-12T09:04:55.981Z,12.73
2018-11-12T09:05:56.012Z,12.76
2018-11-12T09:06:56.011Z,12.81
2018-11-12T09:07:56.036Z,12.73
2018-11-12T09:08:56.064Z,12.73
2018-11-12T09:09:56.120Z,12.69
2018-11-12T09:10:56.116Z,12.65
2018-11-12T09:11:56.144Z,12.65
2018-11-12T09:12:56.169Z,12.59
2018-11-12T09:13:56.195Z,12.63
2018-11-12T09:14:56.222Z,12.63
2018-11-12T09:15:56.250Z,12.61
2018-11-12T09:16:56.275Z,12.61
2018-11-12T09:17:56.301Z,12.62
2018-11-12T09:18:56.329Z,12.65
2018-11-12T09:19:56.354Z,12.73
2018-11-12T09:20:56.385Z,12.70
2018-11-12T09:21:56.407Z,12.61
2018-11-12T09:22:56.436Z,12.61
2018-11-12T09:23:56.460Z,12.62
2018-11-12T09:24:56.488Z,12.74
2018-11-12T09:25:56.513Z,12.65
2018-11-12T09:26:56.541Z,12.74
2018-11-12T09:27:56.566Z,12.73
2018-11-12T09:28:56.595Z,12.76
2018-11-12T09:29:56.619Z,12.76
2018-11-12T09:30:57.963Z,12.76
2018-11-12T09:31:56.673Z,12.74
2018-11-12T09:32:56.699Z,12.76
2018-11-12T09:34:56.752Z,12.86
2018-11-12T09:35:56.780Z,12.89
2018-11-12T09:36:56.806Z,12.88
2018-11-12T09:37:56.832Z,12.86
2018-11-12T09:40:56.924Z,12.96
2018-11-12T09:41:56.938Z,13.06
2018-11-12T09:42:57.017Z,13.10
2018-11-12T09:43:56.993Z,13.16
2018-11-12T09:44:57.019Z,13.19
2018-11-12T09:45:57.065Z,13.28
2018-11-12T09:46:57.072Z,13.35
2018-11-12T09:47:57.200Z,13.47
2018-11-12T09:48:57.131Z,13.54
2018-11-12T09:49:57.151Z,13.51
2018-11-12T09:50:57.178Z,13.54
2018-11-12T09:51:57.205Z,13.55
2018-11-12T09:52:57.236Z,13.55
2018-11-12T09:53:57.307Z,13.40
2018-11-12T09:54:57.286Z,13.37
2018-11-12T09:55:57.313Z,13.47
2018-11-12T09:56:57.344Z,13.44
2018-11-12T09:57:57.368Z,13.42
2018-11-12T09:58:57.393Z,13.37
2018-11-12T09:59:57.496Z,13.39
2018-11-12T10:00:57.662Z,13.40
2018-11-12T10:01:58.052Z,13.27
2018-11-12T10:02:58.451Z,13.28
2018-11-12T10:03:58.743Z,13.27
2018-11-12T10:04:59.046Z,13.20
2018-11-12T10:05:59.454Z,13.14
2018-11-12T10:06:58.653Z,13.16
2018-11-12T10:08:00.786Z,13.17
2018-11-12T10:09:00.477Z,13.14
2018-11-12T10:09:59.684Z,13.19
2018-11-12T10:11:01.330Z,13.14
2018-11-12T10:11:59.631Z,13.17
2018-11-12T10:12:59.086Z,13.24
2018-11-12T10:14:00.976Z,13.24
2018-11-12T10:15:01.642Z,13.25
2018-11-12T10:15:59.992Z,13.21
2018-11-12T10:17:01.117Z,13.27
2018-11-12T10:17:59.908Z,13.24
2018-11-12T10:18:57.934Z,13.36
2018-11-12T10:19:57.959Z,13.44
2018-11-12T10:20:57.986Z,13.39
2018-11-12T10:21:58.012Z,13.39
2018-11-12T10:22:58.039Z,13.42
2018-11-12T10:23:58.066Z,13.40
2018-11-12T10:24:58.094Z,13.47
2018-11-12T10:25:58.120Z,13.42
2018-11-12T10:26:58.148Z,13.44
2018-11-12T10:27:58.174Z,13.53
2018-11-12T10:28:58.202Z,13.47
2018-11-12T10:29:58.228Z,13.39
2018-11-12T10:30:58.255Z,13.45
2018-11-12T10:31:58.283Z,13.36
2018-11-12T10:32:58.311Z,13.42
2018-11-12T10:33:58.387Z,13.44
2018-11-12T10:34:58.363Z,13.35
2018-11-12T10:35:58.391Z,13.39
2018-11-12T10:36:58.417Z,13.47
2018-11-12T10:37:58.446Z,13.48
2018-11-12T10:38:58.473Z,13.58
2018-11-12T10:39:58.498Z,13.70
2018-11-12T10:40:58.549Z,13.95
2018-11-12T10:41:58.553Z,13.88
2018-11-12T10:42:58.579Z,13.81
2018-11-12T10:43:58.606Z,13.68
2018-11-12T10:44:58.633Z,13.65
2018-11-12T10:45:58.661Z,13.69
2018-11-12T10:46:58.687Z,13.69
2018-11-12T10:47:58.745Z,13.73
2018-11-12T10:48:58.741Z,13.73
2018-11-12T10:49:58.768Z,13.72
2018-11-12T10:51:05.031Z,13.72
2018-11-12T10:51:58.823Z,13.84
2018-11-12T10:52:58.850Z,13.91
2018-11-12T10:53:59.014Z,13.94
2018-11-12T10:55:04.894Z,13.91
2018-11-12T10:55:59.113Z,14.08
2018-11-12T10:56:58.958Z,14.16
2018-11-12T10:57:58.985Z,14.01
2018-11-12T10:58:59.012Z,13.97
2018-11-12T10:59:59.040Z,14.05
2018-11-12T11:00:59.068Z,14.06
2018-11-12T11:01:59.093Z,13.99
2018-11-12T11:02:59.122Z,14.02
2018-11-12T11:03:59.150Z,13.95
2018-11-12T11:04:59.177Z,13.97
2018-11-12T11:05:59.203Z,13.95
2018-11-12T11:06:59.229Z,13.93
2018-11-12T11:07:59.291Z,13.94
2018-11-12T11:08:59.286Z,13.95
2018-11-12T11:09:59.313Z,13.95
2018-11-12T11:10:59.340Z,13.91
2018-11-12T11:11:59.367Z,13.95
2018-11-12T11:12:59.394Z,13.86
2018-11-12T11:13:59.422Z,13.83
2018-11-12T11:14:59.449Z,13.86
2018-11-12T11:15:59.476Z,13.90
2018-11-12T11:16:59.505Z,13.83
2018-11-12T11:17:59.535Z,13.91
2018-11-12T11:18:59.557Z,13.95
2018-11-12T11:19:59.586Z,13.87
2018-11-12T11:20:59.653Z,13.93
2018-11-12T11:21:59.639Z,13.87
2018-11-12T11:22:59.670Z,13.90
2018-11-12T11:23:59.695Z,13.95
2018-11-12T11:24:59.722Z,13.90
2018-11-12T11:25:59.752Z,13.91
2018-11-12T11:26:59.800Z,13.91
2018-11-12T11:27:59.803Z,13.97
2018-11-12T11:28:59.831Z,14.08
2018-11-12T11:29:59.857Z,14.06
2018-11-12T11:30:59.921Z,14.06
2018-11-12T11:31:59.920Z,14.13
2018-11-12T11:32:59.940Z,14.13
2018-11-12T11:33:59.967Z,14.13
2018-11-12T11:34:59.997Z,14.06
2018-11-12T11:36:00.026Z,14.08
2018-11-12T11:37:00.050Z,14.15
2018-11-12T11:38:00.077Z,14.16
2018-11-12T11:39:00.104Z,14.19
2018-11-12T11:40:00.188Z,14.19
2018-11-12T11:41:00.160Z,14.16
2018-11-12T11:42:00.186Z,14.05
2018-11-12T11:43:00.216Z,14.03
2018-11-12T11:44:00.285Z,14.03
2018-11-12T11:45:00.269Z,13.97
2018-11-12T11:46:00.337Z,13.88
2018-11-12T11:47:00.331Z,13.91
2018-11-12T11:48:00.461Z,14.02
2018-11-12T11:49:00.534Z,13.93
2018-11-12T11:50:00.431Z,14.01
2018-11-12T11:51:00.459Z,14.02
2018-11-12T11:52:00.461Z,14.02
2018-11-12T11:53:00.490Z,14.03
2018-11-12T11:54:00.516Z,14.08
2018-11-12T11:55:00.543Z,14.09
2018-11-12T11:56:00.571Z,14.06
2018-11-12T11:57:00.620Z,14.09
2018-11-12T11:58:00.625Z,14.12
2018-11-12T11:59:00.653Z,14.16
2018-11-12T12:00:00.680Z,14.15
2018-11-12T12:01:00.715Z,14.19
2018-11-12T12:02:00.786Z,14.13
2018-11-12T12:03:00.855Z,14.13
2018-11-12T12:04:00.792Z,14.19
2018-11-12T12:05:00.817Z,14.27
2018-11-12T12:06:00.844Z,14.20
2018-11-12T12:07:00.872Z,14.24
2018-11-12T12:08:00.901Z,14.20
2018-11-12T12:09:00.971Z,14.19
2018-11-12T12:10:00.954Z,14.12
2018-11-12T12:11:00.981Z,14.23
2018-11-12T12:12:01.009Z,14.19
2018-11-12T12:13:01.037Z,14.19
2018-11-12T12:14:01.063Z,14.30
2018-11-12T12:15:01.093Z,14.33
2018-11-12T12:16:01.121Z,14.28
2018-11-12T12:17:01.148Z,14.36
2018-11-12T12:18:01.177Z,14.30
2018-11-12T12:19:01.203Z,14.30
2018-11-12T12:20:01.233Z,14.26
2018-11-12T12:21:01.291Z,14.30
2018-11-12T12:22:01.284Z,14.21
2018-11-12T12:23:01.311Z,14.23
2018-11-12T12:24:01.339Z,14.31
2018-11-12T12:25:01.413Z,14.27
2018-11-12T12:26:01.452Z,14.38
2018-11-12T12:27:01.426Z,14.31
2018-11-12T12:28:01.449Z,14.36
2018-11-12T12:29:01.478Z,14.39
2018-11-12T12:30:01.505Z,14.41
2018-11-12T12:31:01.533Z,14.48
2018-11-12T12:32:01.561Z,14.46
2018-11-12T12:33:01.589Z,14.44
2018-11-12T12:34:01.637Z,14.41
2018-11-12T12:35:01.642Z,14.44
2018-11-12T12:36:01.819Z,14.41
2018-11-12T12:37:01.699Z,14.49
2018-11-12T12:38:01.728Z,14.42
2018-11-12T12:39:01.754Z,14.48
2018-11-12T12:40:01.782Z,14.44
2018-11-12T12:41:01.812Z,14.42
2018-11-12T12:42:01.837Z,14.44
2018-11-12T12:43:01.863Z,14.31
2018-11-12T12:44:01.891Z,14.36
2018-11-12T12:45:02.229Z,14.30
2018-11-12T12:46:01.967Z,14.28
2018-11-12T12:47:01.975Z,14.30
2018-11-12T12:48:02.008Z,14.26
2018-11-12T12:49:02.029Z,14.34
2018-11-12T12:50:02.057Z,14.28
2018-11-12T12:51:02.085Z,14.27
2018-11-12T12:52:02.112Z,14.27
2018-11-12T12:53:02.139Z,14.24
2018-11-12T12:54:02.168Z,14.16
2018-11-12T12:55:02.194Z,14.16
2018-11-12T12:56:02.317Z,14.16